createdAt,value
2022-10-17T00:00:17.124Z,101981.97
2022-10-17T00:02:43.735Z,101968.50
2022-10-17T00:05:11.906Z,101950.72
2022-10-17T00:07:38.574Z,101950.97
2022-10-17T00:10:07.538Z,101945.16
2022-10-17T00:12:34.445Z,101931.41
2022-10-17T00:15:03.571Z,101934.69
2022-10-17T00:17:30.541Z,101945.56
2022-10-17T00:19:59.424Z,101929.94
2022-10-17T00:22:26.709Z,101918.63
2022-10-17T00:24:53.488Z,101894.94
2022-10-17T00:27:20.090Z,101900.97
2022-10-17T00:29:52.141Z,101892.19
2022-10-17T00:32:19.875Z,101889.44
2022-10-17T00:34:46.791Z,101876.78
2022-10-17T00:37:13.390Z,101871.25
2022-10-17T00:39:40.380Z,101873.13
2022-10-17T00:42:07.111Z,101866.63
2022-10-17T00:44:33.835Z,101874.13
2022-10-17T00:47:04.094Z,101873.84
2022-10-17T00:49:53.229Z,101858.63
2022-10-17T00:52:22.204Z,101853.16
2022-10-17T00:54:54.405Z,101857.16
2022-10-17T00:57:21.094Z,101857.00
2022-10-17T00:59:51.886Z,101845.00
2022-10-17T01:02:20.898Z,101840.44
2022-10-17T01:04:49.362Z,101839.78
2022-10-17T01:07:16.095Z,101846.47
2022-10-17T01:09:43.940Z,101849.13
2022-10-17T01:12:23.355Z,101844.38
2022-10-17T01:15:08.710Z,101843.66
2022-10-17T01:17:54.278Z,101837.81
2022-10-17T01:20:36.488Z,101830.31
2022-10-17T01:23:29.416Z,101819.38
2022-10-17T01:26:34.640Z,101824.53
2022-10-17T01:29:16.553Z,101817.84
2022-10-17T01:31:53.350Z,101818.81
2022-10-17T01:34:36.207Z,101828.19
2022-10-17T01:37:07.198Z,101831.19
2022-10-17T01:39:46.965Z,101832.13
2022-10-17T01:42:27.355Z,101823.84
2022-10-17T01:45:06.409Z,101826.00
2022-10-17T01:47:34.090Z,101819.66
2022-10-17T01:50:07.120Z,101813.63
2022-10-17T01:52:42.676Z,101811.59
2022-10-17T01:55:14.510Z,101801.06
2022-10-17T01:57:46.142Z,101797.41
2022-10-17T02:00:15.757Z,101776.16
2022-10-17T02:02:44.065Z,101763.19
2022-10-17T02:05:10.854Z,101744.66
2022-10-17T02:07:39.705Z,101731.94
2022-10-17T02:10:12.187Z,101734.31
2022-10-17T02:13:29.254Z,101738.53
2022-10-17T02:16:21.819Z,101730.09
2022-10-17T02:19:26.242Z,101730.41
2022-10-17T02:22:41.593Z,101718.66
2022-10-17T02:25:31.852Z,101712.50
2022-10-17T02:28:19.366Z,101708.41
2022-10-17T02:30:53.849Z,101694.34
2022-10-17T02:33:32.036Z,101707.03
2022-10-17T02:36:03.322Z,101709.47
2022-10-17T02:38:30.758Z,101705.81
2022-10-17T02:40:57.702Z,101720.03
2022-10-17T02:43:24.575Z,101721.41
2022-10-17T02:45:52.864Z,101720.97
2022-10-17T02:48:36.682Z,101713.19
2022-10-17T02:51:08.114Z,101714.16
2022-10-17T02:53:41.997Z,101713.44
2022-10-17T02:56:18.358Z,101693.84
2022-10-17T02:58:49.119Z,101716.84
2022-10-17T03:01:16.677Z,101715.19
2022-10-17T03:03:43.407Z,101715.03
2022-10-17T03:06:10.315Z,101706.13
2022-10-17T03:11:04.557Z,101698.75
2022-10-17T03:13:34.956Z,101670.59
2022-10-17T03:16:06.284Z,101680.25
2022-10-17T03:18:32.997Z,101679.63
2022-10-17T03:21:01.199Z,101671.69
2022-10-17T03:23:28.193Z,101671.47
2022-10-17T03:25:55.090Z,101678.47
2022-10-17T03:28:21.961Z,101670.91
2022-10-17T03:30:48.598Z,101661.00
2022-10-17T03:33:15.235Z,101659.16
2022-10-17T03:35:41.876Z,101658.31
2022-10-17T03:38:10.423Z,101653.28
2022-10-17T03:40:37.054Z,101655.78
2022-10-17T03:43:03.997Z,101642.41
2022-10-17T03:45:30.640Z,101654.41
2022-10-17T03:47:58.951Z,101653.16
2022-10-17T03:50:25.753Z,101626.53
2022-10-17T03:52:52.377Z,101624.41
2022-10-17T03:55:19.179Z,101628.00
2022-10-17T03:57:45.870Z,101619.81
2022-10-17T04:00:14.507Z,101606.63
2022-10-17T04:02:41.185Z,101617.69
2022-10-17T04:05:11.408Z,101612.31
2022-10-17T04:07:38.180Z,101602.22
2022-10-17T04:10:05.777Z,101613.16
2022-10-17T04:12:32.811Z,101613.94
2022-10-17T04:14:59.688Z,101612.53
2022-10-17T04:17:26.793Z,101607.47
2022-10-17T04:19:53.469Z,101607.38
2022-10-17T04:22:20.071Z,101619.91
2022-10-17T04:24:46.913Z,101621.53
2022-10-17T04:27:24.570Z,101628.72
2022-10-17T04:29:51.264Z,101638.06
2022-10-17T04:32:22.945Z,101637.19
2022-10-17T04:35:09.803Z,101638.84
2022-10-17T04:37:39.106Z,101656.53
2022-10-17T04:40:12.219Z,101668.88
2022-10-17T04:42:38.847Z,101690.53
2022-10-17T04:45:06.299Z,101699.97
2022-10-17T04:47:33.213Z,101709.03
2022-10-17T04:50:00.023Z,101727.16
2022-10-17T04:52:26.876Z,101740.72
2022-10-17T04:54:53.917Z,101752.78
2022-10-17T04:57:21.297Z,101743.44
2022-10-17T04:59:55.866Z,101731.28
2022-10-17T05:02:29.853Z,101722.81
2022-10-17T05:04:56.857Z,101711.75
2022-10-17T05:07:26.088Z,101709.19
2022-10-17T05:10:13.628Z,101728.03
2022-10-17T05:12:43.717Z,101731.44
2022-10-17T05:15:10.698Z,101739.06
2022-10-17T05:17:37.287Z,101726.56
2022-10-17T05:20:05.470Z,101708.94
2022-10-17T05:22:36.035Z,101706.13
2022-10-17T05:25:05.358Z,101683.47
2022-10-17T05:27:32.206Z,101672.25
2022-10-17T05:29:58.807Z,101656.97
2022-10-17T05:32:29.415Z,101653.28
2022-10-17T05:34:56.104Z,101638.72
2022-10-17T05:37:24.871Z,101620.66
2022-10-17T05:39:54.358Z,101611.53
2022-10-17T05:42:21.071Z,101609.03
2022-10-17T05:44:47.839Z,101592.41
2022-10-17T05:47:16.477Z,101583.47
2022-10-17T05:49:48.619Z,101574.16
2022-10-17T05:52:18.559Z,101566.75
2022-10-17T05:54:56.947Z,101546.34
2022-10-17T05:57:26.712Z,101547.44
2022-10-17T05:59:53.971Z,101530.56
2022-10-17T06:02:21.763Z,101515.19
2022-10-17T06:04:49.302Z,101512.13
2022-10-17T06:07:17.634Z,101497.13
2022-10-17T06:12:14.683Z,101478.66
2022-10-17T06:14:41.519Z,101470.75
2022-10-17T06:17:12.117Z,101474.47
2022-10-17T06:19:42.030Z,101482.19
2022-10-17T06:22:08.651Z,101481.59
2022-10-17T06:24:36.003Z,101486.59
2022-10-17T06:27:09.350Z,101475.81
2022-10-17T06:29:38.478Z,101469.97
2022-10-17T06:32:08.629Z,101447.97
2022-10-17T06:34:38.282Z,101435.09
2022-10-17T06:37:04.941Z,101419.50
2022-10-17T06:39:35.263Z,101417.41
2022-10-17T06:42:06.032Z,101414.91
2022-10-17T06:44:46.125Z,101412.19
2022-10-17T06:47:20.037Z,101400.53
2022-10-17T06:49:50.050Z,101391.97
2022-10-17T06:52:40.635Z,101374.31
2022-10-17T06:55:43.009Z,101357.25
2022-10-17T06:58:39.618Z,101352.91
2022-10-17T07:01:24.163Z,101348.28
2022-10-17T07:03:54.955Z,101334.97
2022-10-17T07:06:24.620Z,101319.56
2022-10-17T07:08:52.480Z,101316.97
2022-10-17T07:11:21.881Z,101305.53
2022-10-17T07:13:51.075Z,101291.63
2022-10-17T07:16:17.769Z,101288.88
2022-10-17T07:18:51.588Z,101270.75
2022-10-17T07:21:19.182Z,101252.00
2022-10-17T07:23:45.826Z,101245.97
2022-10-17T07:26:15.490Z,101234.91
2022-10-17T07:28:47.075Z,101209.63
2022-10-17T07:31:25.305Z,101202.63
2022-10-17T07:33:51.991Z,101200.09
2022-10-17T07:36:19.136Z,101192.06
2022-10-17T07:38:46.334Z,101184.50
2022-10-17T07:41:16.548Z,101171.47
2022-10-17T07:43:46.590Z,101162.63
2022-10-17T07:46:15.435Z,101159.44
2022-10-17T07:48:42.127Z,101141.16
2022-10-17T07:51:09.602Z,101123.50
2022-10-17T07:53:37.342Z,101110.53
2022-10-17T07:56:08.252Z,101103.22
2022-10-17T07:58:35.490Z,101088.56
2022-10-17T08:03:30.011Z,101072.06
2022-10-17T08:06:01.021Z,101063.56
2022-10-17T08:08:28.151Z,101062.13
2022-10-17T08:10:56.343Z,101050.31
2022-10-17T08:13:23.366Z,101047.81
2022-10-17T08:15:55.791Z,101033.00
2022-10-17T08:18:22.516Z,101026.13
2022-10-17T08:20:49.092Z,101012.78
2022-10-17T08:23:15.668Z,101009.41
2022-10-17T08:25:42.265Z,101004.56
2022-10-17T08:28:08.893Z,100979.72
2022-10-17T08:30:35.935Z,100977.69
2022-10-17T08:33:02.526Z,100962.41
2022-10-17T08:35:29.212Z,100961.69
2022-10-17T08:37:55.837Z,100955.16
2022-10-17T08:40:35.560Z,100947.50
2022-10-17T08:43:20.552Z,100932.31
2022-10-17T08:46:01.009Z,100929.09
2022-10-17T08:48:30.409Z,100924.75
2022-10-17T08:51:05.485Z,100912.94
2022-10-17T08:53:36.735Z,100904.13
2022-10-17T08:56:19.525Z,100902.38
2022-10-17T08:58:51.430Z,100903.84
2022-10-17T09:01:32.921Z,100901.13
2022-10-17T09:04:20.819Z,100889.38
2022-10-17T09:06:58.737Z,100885.69
2022-10-17T09:09:59.419Z,100866.53
2022-10-17T09:13:05.341Z,100865.59
2022-10-17T09:15:48.976Z,100856.00
2022-10-17T09:18:22.032Z,100842.41
2022-10-17T09:21:00.846Z,100833.63
2022-10-17T09:23:37.997Z,100836.63
2022-10-17T09:26:10.356Z,100833.16
2022-10-17T09:28:41.562Z,100830.59
2022-10-17T09:31:12.963Z,100828.06
2022-10-17T09:33:55.658Z,100821.72
2022-10-17T09:36:33.619Z,100816.53
2022-10-17T09:39:03.403Z,100811.34
2022-10-17T09:41:45.471Z,100814.69
2022-10-17T09:44:23.211Z,100805.78
2022-10-17T09:47:28.567Z,100794.66
2022-10-17T09:49:55.621Z,100784.84
2022-10-17T09:52:25.015Z,100790.63
2022-10-17T09:54:54.796Z,100783.63
2022-10-17T09:57:22.453Z,100776.53
2022-10-17T10:00:07.141Z,100770.56
2022-10-17T10:02:42.601Z,100768.09
2022-10-17T10:05:20.536Z,100779.53
2022-10-17T10:08:05.663Z,100775.09
2022-10-17T10:10:32.673Z,100766.94
2022-10-17T10:13:14.585Z,100759.69
2022-10-17T10:15:45.608Z,100753.94
2022-10-17T10:18:35.836Z,100754.66
2022-10-17T10:21:10.107Z,100755.91
2022-10-17T10:23:46.970Z,100756.84
2022-10-17T10:26:30.353Z,100749.94
2022-10-17T10:29:00.287Z,100756.00
2022-10-17T10:31:45.181Z,100752.53
2022-10-17T10:34:29.440Z,100756.75
2022-10-17T10:37:03.012Z,100765.16
2022-10-17T10:39:35.509Z,100751.28
2022-10-17T10:42:05.786Z,100747.69
2022-10-17T10:44:33.285Z,100744.00
2022-10-17T10:47:29.724Z,100747.16
2022-10-17T10:50:18.750Z,100747.75
2022-10-17T10:52:50.825Z,100745.31
2022-10-17T10:55:27.870Z,100740.22
2022-10-17T10:58:03.839Z,100740.00
2022-10-17T11:00:32.381Z,100726.50
2022-10-17T11:03:16.501Z,100729.88
2022-10-17T11:06:02.926Z,100744.03
2022-10-17T11:08:48.217Z,100759.00
2022-10-17T11:11:25.840Z,100765.47
2022-10-17T11:14:17.353Z,100764.47
2022-10-17T11:16:49.467Z,100775.25
2022-10-17T11:19:31.273Z,100772.81
2022-10-17T11:22:03.727Z,100783.53
2022-10-17T11:24:37.354Z,100777.94
2022-10-17T11:27:05.509Z,100782.00
2022-10-17T11:29:40.106Z,100772.50
2022-10-17T11:32:15.724Z,100768.16
2022-10-17T11:34:56.008Z,100787.28
2022-10-17T11:37:25.884Z,100791.63
2022-10-17T11:40:31.674Z,100795.41
2022-10-17T11:43:04.087Z,100812.56
2022-10-17T11:45:35.395Z,100821.50
2022-10-17T11:48:10.830Z,100826.09
2022-10-17T11:53:33.459Z,100835.13
2022-10-17T11:56:17.999Z,100843.09
2022-10-17T11:58:47.995Z,100855.31
2022-10-17T12:01:47.169Z,100848.97
2022-10-17T12:04:22.498Z,100834.94
2022-10-17T12:07:01.332Z,100832.91
2022-10-17T12:09:34.237Z,100823.03
2022-10-17T12:12:04.086Z,100836.25
2022-10-17T12:14:33.694Z,100837.81
2022-10-17T12:17:01.600Z,100828.16
2022-10-17T12:19:33.919Z,100833.84
2022-10-17T12:25:46.421Z,100841.09
2022-10-17T12:28:15.798Z,100854.25
2022-10-17T12:30:57.608Z,100860.69
2022-10-17T12:33:35.009Z,100866.81
2022-10-17T12:36:17.131Z,100860.75
2022-10-17T12:38:49.913Z,100865.66
2022-10-17T12:41:17.499Z,100872.50
2022-10-17T12:43:44.786Z,100865.97
2022-10-17T12:46:11.839Z,100858.59
2022-10-17T12:48:38.443Z,100858.88
2022-10-17T12:51:36.400Z,100852.63
2022-10-17T12:54:15.247Z,100844.16
2022-10-17T12:56:47.429Z,100851.72
2022-10-17T12:59:24.220Z,100848.47
2022-10-17T13:01:53.662Z,100856.22
2022-10-17T13:04:20.598Z,100866.63
2022-10-17T13:06:49.514Z,100855.44
2022-10-17T13:09:23.703Z,100852.44
2022-10-17T13:11:50.405Z,100865.56
2022-10-17T13:14:19.293Z,100867.19
2022-10-17T13:16:57.978Z,100863.72
2022-10-17T13:19:42.099Z,100879.75
2022-10-17T13:22:17.055Z,100899.47
2022-10-17T13:24:44.095Z,100907.03
2022-10-17T13:27:32.562Z,100929.22
2022-10-17T13:30:01.565Z,100944.56
2022-10-17T13:32:37.714Z,100956.97
2022-10-17T13:35:12.683Z,100976.81
2022-10-17T13:37:40.466Z,100988.81
2022-10-17T13:40:30.833Z,100984.31
2022-10-17T13:42:57.132Z,100979.19
2022-10-17T13:45:35.099Z,100982.41
2022-10-17T13:48:06.868Z,100998.44
2022-10-17T13:50:44.555Z,100999.13
2022-10-17T13:53:43.868Z,100997.88
2022-10-17T13:56:29.651Z,100998.44
2022-10-17T13:58:59.229Z,100999.34
2022-10-17T14:01:28.436Z,101003.72
2022-10-17T14:04:07.917Z,101015.22
2022-10-17T14:06:43.940Z,101031.34
2022-10-17T14:09:31.328Z,101047.31
2022-10-17T14:12:06.775Z,101069.78
2022-10-17T14:14:51.707Z,101076.81
2022-10-17T14:17:26.427Z,101087.03
2022-10-17T14:20:14.064Z,101098.91
2022-10-17T14:22:44.556Z,101106.19
2022-10-17T14:25:36.782Z,101115.97
2022-10-17T14:28:13.844Z,101129.56
2022-10-17T14:30:57.474Z,101133.25
2022-10-17T14:33:30.185Z,101143.47
2022-10-17T14:35:59.106Z,101154.91
2022-10-17T14:38:26.167Z,101169.00
2022-10-17T14:41:40.822Z,101168.81
2022-10-17T14:44:02.957Z,101176.22
2022-10-17T14:46:29.652Z,101180.50
2022-10-17T14:49:02.267Z,101192.88
2022-10-17T14:51:36.088Z,101207.91
2022-10-17T14:54:29.739Z,101200.00
2022-10-17T14:56:56.312Z,101196.78
2022-10-17T14:59:51.995Z,101199.88
2022-10-17T15:02:13.496Z,101222.09
2022-10-17T15:04:40.276Z,101236.91
2022-10-17T15:07:06.958Z,101255.94
2022-10-17T15:09:33.660Z,101284.88
2022-10-17T15:12:04.208Z,101310.13
2022-10-17T15:14:30.829Z,101337.75
2022-10-17T15:16:57.467Z,101364.88
2022-10-17T15:19:24.049Z,101374.22
2022-10-17T15:21:50.625Z,101390.50
2022-10-17T15:24:17.282Z,101411.38
2022-10-17T15:26:44.012Z,101425.41
2022-10-17T15:29:15.325Z,101447.38
2022-10-17T15:31:41.980Z,101464.72
2022-10-17T15:34:08.560Z,101488.09
2022-10-17T15:36:42.264Z,101504.16
2022-10-17T15:39:09.941Z,101518.66
2022-10-17T15:41:36.581Z,101530.47
2022-10-17T15:44:03.195Z,101541.75
2022-10-17T15:46:33.461Z,101541.38
2022-10-17T15:49:09.639Z,101534.41
2022-10-17T15:51:36.561Z,101543.34
2022-10-17T15:54:03.341Z,101541.81
2022-10-17T15:56:41.511Z,101548.03
2022-10-17T15:59:15.190Z,101542.41
2022-10-17T16:01:41.986Z,101553.09
2022-10-17T16:04:14.786Z,101563.81
2022-10-17T16:06:44.761Z,101575.41
2022-10-17T16:09:11.374Z,101574.91
2022-10-17T16:11:40.656Z,101586.22
2022-10-17T16:14:11.419Z,101590.31
2022-10-17T16:16:40.575Z,101606.59
2022-10-17T16:19:07.933Z,101625.28
2022-10-17T16:21:36.460Z,101636.44
2022-10-17T16:24:03.981Z,101638.78
2022-10-17T16:26:32.907Z,101654.91
2022-10-17T16:29:02.748Z,101664.91
2022-10-17T16:31:35.079Z,101673.38
2022-10-17T16:34:03.114Z,101684.50
2022-10-17T16:36:29.807Z,101694.00
2022-10-17T16:38:56.395Z,101714.50
2022-10-17T16:41:26.015Z,101739.53
2022-10-17T16:43:55.252Z,101746.59
2022-10-17T16:46:22.514Z,101778.09
2022-10-17T16:48:49.281Z,101788.16
2022-10-17T16:51:18.083Z,101800.56
2022-10-17T16:53:50.307Z,101805.41
2022-10-17T16:56:21.606Z,101834.72
2022-10-17T16:58:48.980Z,101861.59
2022-10-17T17:01:22.655Z,101883.03
2022-10-17T17:03:49.857Z,101900.66
2022-10-17T17:06:19.560Z,101935.94
2022-10-17T17:08:46.396Z,101967.25
2022-10-17T17:11:15.397Z,102013.16
2022-10-17T17:13:42.078Z,102045.69
2022-10-17T17:16:17.492Z,102087.84
2022-10-17T17:18:45.966Z,102136.22
2022-10-17T17:21:12.755Z,102175.84
2022-10-17T17:23:40.775Z,102207.53
2022-10-17T17:26:14.067Z,102242.78
2022-10-17T17:28:42.775Z,102275.28
2022-10-17T17:31:11.436Z,102302.13
2022-10-17T17:33:39.267Z,102335.69
2022-10-17T17:36:06.677Z,102369.81
2022-10-17T17:38:34.905Z,102393.75
2022-10-17T17:41:01.884Z,102446.22
2022-10-17T17:43:28.851Z,102466.03
2022-10-17T17:45:55.675Z,102501.56
2022-10-17T17:48:22.311Z,102526.94
2022-10-17T17:50:49.014Z,102536.81
2022-10-17T17:53:16.464Z,102570.38
2022-10-17T17:55:43.060Z,102588.69
2022-10-17T17:58:11.266Z,102606.88
2022-10-17T18:00:38.750Z,102622.75
2022-10-17T18:03:05.496Z,102629.97
2022-10-17T18:05:32.320Z,102636.16
2022-10-17T18:07:58.940Z,102663.97
2022-10-17T18:10:25.562Z,102676.41
2022-10-17T18:12:52.258Z,102687.81
2022-10-17T18:15:18.969Z,102688.84
2022-10-17T18:17:45.634Z,102690.63
2022-10-17T18:20:12.396Z,102693.22
2022-10-17T18:22:39.006Z,102689.22
2022-10-17T18:25:08.168Z,102684.00
2022-10-17T18:27:34.815Z,102678.97
2022-10-17T18:30:01.441Z,102685.31
2022-10-17T18:32:31.136Z,102696.72
2022-10-17T18:34:58.612Z,102712.59
2022-10-17T18:37:27.623Z,102712.88
2022-10-17T18:39:55.813Z,102720.06
2022-10-17T18:42:22.455Z,102716.03
2022-10-17T18:44:49.841Z,102722.56
2022-10-17T18:47:16.425Z,102729.66
2022-10-17T18:49:42.960Z,102726.84
2022-10-17T18:52:09.616Z,102729.09
2022-10-17T18:54:36.167Z,102734.50
2022-10-17T18:57:03.079Z,102730.44
2022-10-17T18:59:29.662Z,102739.53
2022-10-17T19:01:56.348Z,102747.69
2022-10-17T19:04:25.227Z,102747.22
2022-10-17T19:06:51.847Z,102754.09
2022-10-17T19:09:19.273Z,102758.84
2022-10-17T19:11:45.971Z,102760.81
2022-10-17T19:14:13.478Z,102765.28
2022-10-17T19:16:42.945Z,102771.06
2022-10-17T19:19:28.067Z,102780.88
2022-10-17T19:21:54.907Z,102781.22
2022-10-17T19:24:23.915Z,102781.44
2022-10-17T19:26:53.454Z,102775.22
2022-10-17T19:29:24.270Z,102781.38
2022-10-17T19:31:51.160Z,102766.88
2022-10-17T19:34:18.300Z,102772.75
2022-10-17T19:36:44.963Z,102770.59
2022-10-17T19:39:16.505Z,102755.94
2022-10-17T19:41:46.955Z,102755.75
2022-10-17T19:44:14.588Z,102734.13
2022-10-17T19:46:48.960Z,102730.75
2022-10-17T19:49:15.559Z,102731.50
2022-10-17T19:51:42.465Z,102730.75
2022-10-17T19:54:09.883Z,102726.91
2022-10-17T19:56:38.037Z,102724.69
2022-10-17T19:59:08.386Z,102733.84
2022-10-17T20:01:38.729Z,102734.00
2022-10-17T20:04:06.400Z,102733.47
2022-10-17T20:06:33.569Z,102721.63
2022-10-17T20:09:00.244Z,102709.00
2022-10-17T20:11:28.134Z,102706.66
2022-10-17T20:13:55.774Z,102701.63
2022-10-17T20:16:32.319Z,102699.50
2022-10-17T20:19:09.987Z,102704.81
2022-10-17T20:21:37.308Z,102696.22
2022-10-17T20:24:06.744Z,102687.97
2022-10-17T20:26:39.099Z,102688.81
2022-10-17T20:29:11.102Z,102692.41
2022-10-17T20:31:38.701Z,102686.91
2022-10-17T20:34:05.341Z,102688.09
2022-10-17T20:36:32.360Z,102693.22
2022-10-17T20:38:59.363Z,102681.75
2022-10-17T20:41:26.534Z,102679.75
2022-10-17T20:43:54.811Z,102681.63
2022-10-17T20:46:35.985Z,102692.34
2022-10-17T20:49:07.491Z,102679.75
2022-10-17T20:51:34.818Z,102689.84
2022-10-17T20:54:02.531Z,102691.91
2022-10-17T20:56:30.867Z,102682.09
2022-10-17T20:58:59.506Z,102675.91
2022-10-17T21:01:26.901Z,102666.97
2022-10-17T21:03:53.624Z,102666.31
2022-10-17T21:06:20.903Z,102674.88
2022-10-17T21:08:48.377Z,102676.34
2022-10-17T21:11:19.726Z,102677.88
2022-10-17T21:13:47.474Z,102678.91
2022-10-17T21:16:16.439Z,102677.28
2022-10-17T21:18:43.507Z,102668.38
2022-10-17T21:21:11.260Z,102668.53
2022-10-17T21:23:38.485Z,102659.22
2022-10-17T21:26:07.113Z,102646.97
2022-10-17T21:28:34.486Z,102664.88
2022-10-17T21:31:11.402Z,102668.88
2022-10-17T21:33:38.466Z,102655.81
2022-10-17T21:36:08.348Z,102648.06
2022-10-17T21:38:38.624Z,102646.25
2022-10-17T21:41:06.367Z,102651.13
2022-10-17T21:43:38.277Z,102658.72
2022-10-17T21:46:06.894Z,102645.53
2022-10-17T21:48:34.231Z,102649.16
2022-10-17T21:51:06.693Z,102635.13
2022-10-17T21:53:33.641Z,102637.03
2022-10-17T21:56:06.034Z,102638.19
2022-10-17T21:58:35.193Z,102648.47
2022-10-17T22:01:10.345Z,102640.06
2022-10-17T22:03:42.627Z,102648.84
2022-10-17T22:09:01.173Z,102644.63
2022-10-17T22:11:30.284Z,102634.31
2022-10-17T22:14:07.839Z,102631.66
2022-10-17T22:16:34.912Z,102626.44
2022-10-17T22:19:06.136Z,102622.25
2022-10-17T22:21:35.300Z,102619.34
2022-10-17T22:24:05.663Z,102615.31
2022-10-17T22:26:34.267Z,102617.31
2022-10-17T22:29:01.245Z,102616.19
2022-10-17T22:31:27.916Z,102608.13
2022-10-17T22:33:54.598Z,102615.91
2022-10-17T22:36:21.124Z,102607.31
2022-10-17T22:38:47.750Z,102606.31
2022-10-17T22:41:14.299Z,102612.53
2022-10-17T22:43:46.836Z,102610.00
2022-10-17T22:46:14.580Z,102597.22
2022-10-17T22:48:41.563Z,102604.78
2022-10-17T22:51:08.473Z,102602.94
2022-10-17T22:53:37.223Z,102613.56
2022-10-17T22:56:16.068Z,102620.94
2022-10-17T22:58:42.737Z,102620.66
2022-10-17T23:01:13.824Z,102615.94
2022-10-17T23:03:40.575Z,102623.50
2022-10-17T23:06:07.318Z,102625.22
2022-10-17T23:08:34.035Z,102628.06
2022-10-17T23:11:00.650Z,102627.59
2022-10-17T23:13:29.620Z,102636.50
2022-10-17T23:15:57.064Z,102630.44
2022-10-17T23:18:25.354Z,102625.06
2022-10-17T23:20:52.071Z,102624.38
2022-10-17T23:23:19.346Z,102637.53
2022-10-17T23:25:49.350Z,102638.19
2022-10-17T23:28:16.210Z,102627.09
2022-10-17T23:30:42.851Z,102629.47
2022-10-17T23:33:11.896Z,102624.09
2022-10-17T23:35:41.728Z,102615.81
2022-10-17T23:38:08.637Z,102623.91
2022-10-17T23:40:35.498Z,102616.28
2022-10-17T23:43:03.350Z,102607.16
2022-10-17T23:45:33.514Z,102605.69
2022-10-17T23:48:04.611Z,102607.00
2022-10-17T23:50:31.277Z,102617.44
2022-10-17T23:52:57.836Z,102614.06
2022-10-17T23:55:26.697Z,102617.94
2022-10-17T23:57:53.330Z,102611.72
